Time;durP1;ratioP1;P1;durP2;ratioP2;P2;SDS_P1;SDS_P2;PMS_P1;PMS_P2;Temp;Humidity;BMP_temperature;BMP_pressure;BME280_temperature;BME280_humidity;BME280_pressure;Samples;Min_cycle;Max_cycle;Signal;HPM_P1;HPM_P2
2022/10/15 00:00:28;;;;;;;16.23;14.60;;;;;;;;;;5075843;28;20447;-62
2022/10/15 00:02:55;;;;;;;16.67;14.97;;;;;;;;;;5075798;28;20447;-62
2022/10/15 00:05:23;;;;;;;17.93;15.80;;;;;;;;;;5075793;28;20486;-62
2022/10/15 00:07:50;;;;;;;21.87;17.07;;;;;;;;;;5075559;28;20951;-62
2022/10/15 00:10:17;;;;;;;19.20;17.20;;;;;;;;;;5075477;28;20558;-62
2022/10/15 00:12:44;;;;;;;19.97;17.57;;;;;;;;;;5075621;28;20846;-62
2022/10/15 00:15:11;;;;;;;19.37;16.73;;;;;;;;;;5075629;28;20821;-62
2022/10/15 00:17:39;;;;;;;20.60;18.40;;;;;;;;;;5075552;28;20454;-62
2022/10/15 00:20:07;;;;;;;26.73;18.77;;;;;;;;;;5075466;28;20451;-62
2022/10/15 00:22:35;;;;;;;19.33;17.30;;;;;;;;;;5075327;28;20447;-62
2022/10/15 00:25:02;;;;;;;20.70;17.50;;;;;;;;;;5075547;28;20456;-62
2022/10/15 00:27:29;;;;;;;21.63;19.30;;;;;;;;;;5075426;28;20807;-62
2022/10/15 00:29:58;;;;;;;23.85;17.65;;;;;;;;;;5075319;28;20446;-62
2022/10/15 00:32:25;;;;;;;22.13;17.63;;;;;;;;;;5075169;28;20213;-62
2022/10/15 00:34:52;;;;;;;22.83;19.80;;;;;;;;;;5075199;28;20447;-62
2022/10/15 00:37:20;;;;;;;23.40;19.00;;;;;;;;;;5075073;28;20534;-62
2022/10/15 00:39:48;;;;;;;26.73;20.23;;;;;;;;;;5075228;28;20473;-62
2022/10/15 00:42:15;;;;;;;25.23;20.70;;;;;;;;;;5075206;28;20796;-62
2022/10/15 00:44:48;;;;;;;26.35;18.95;;;;;;;;;;5075017;28;20542;-62
2022/10/15 00:47:17;;;;;;;22.07;19.07;;;;;;;;;;5074773;28;20599;-62
2022/10/15 00:49:47;;;;;;;20.70;18.47;;;;;;;;;;5074773;28;20451;-62
2022/10/15 00:52:16;;;;;;;21.17;17.40;;;;;;;;;;5074954;28;20475;-62
2022/10/15 00:54:45;;;;;;;21.60;18.10;;;;;;;;;;5074892;28;20447;-62
2022/10/15 00:57:13;;;;;;;20.33;17.93;;;;;;;;;;5074612;28;20910;-62
2022/10/15 00:59:48;;;;;;;23.60;18.47;;;;;;;;;;5074698;28;20450;-62
2022/10/15 01:02:16;;;;;;;21.80;19.50;;;;;;;;;;5075107;28;20460;-62
2022/10/15 01:04:43;;;;;;;21.90;17.33;;;;;;;;;;5074780;28;20806;-62
2022/10/15 01:07:10;;;;;;;21.40;17.80;;;;;;;;;;5074697;28;20526;-62
2022/10/15 01:09:37;;;;;;;22.43;19.07;;;;;;;;;;5074546;28;20495;-62
2022/10/15 01:12:05;;;;;;;23.17;18.40;;;;;;;;;;5074371;28;20994;-62
2022/10/15 01:14:38;;;;;;;19.50;17.43;;;;;;;;;;5074367;28;20953;-62
2022/10/15 01:17:06;;;;;;;22.80;18.77;;;;;;;;;;5074854;28;20802;-62
2022/10/15 01:19:43;;;;;;;19.70;17.60;;;;;;;;;;5074459;28;20443;-62
2022/10/15 01:22:12;;;;;;;26.50;18.50;;;;;;;;;;5074339;28;20447;-62
2022/10/15 01:24:48;;;;;;;22.00;18.17;;;;;;;;;;5074220;28;20441;-62
2022/10/15 01:27:30;;;;;;;20.90;17.63;;;;;;;;;;5074069;28;20689;-62
2022/10/15 01:30:24;;;;;;;19.77;17.67;;;;;;;;;;5071055;28;20897;-62
2022/10/15 01:33:01;;;;;;;19.27;16.73;;;;;;;;;;5073964;28;20562;-62
2022/10/15 01:35:32;;;;;;;25.50;17.87;;;;;;;;;;5073945;28;20890;-62
2022/10/15 01:38:05;;;;;;;19.02;16.90;;;;;;;;;;5074134;28;20457;-62
2022/10/15 01:40:34;;;;;;;21.70;17.03;;;;;;;;;;5073994;28;20196;-62
2022/10/15 01:43:03;;;;;;;20.40;17.60;;;;;;;;;;5073956;28;20483;-62
2022/10/15 01:45:31;;;;;;;22.13;16.40;;;;;;;;;;5073730;28;20454;-61
2022/10/15 01:48:01;;;;;;;18.73;16.57;;;;;;;;;;5073472;28;20471;-62
2022/10/15 01:50:31;;;;;;;19.57;17.47;;;;;;;;;;5074084;28;20490;-62
2022/10/15 01:52:59;;;;;;;20.13;16.13;;;;;;;;;;5073459;28;21002;-62
2022/10/15 01:55:27;;;;;;;19.27;16.30;;;;;;;;;;5073677;28;20741;-62
2022/10/15 01:57:55;;;;;;;17.37;15.53;;;;;;;;;;5055896;28;20799;-62
2022/10/15 02:00:22;;;;;;;18.40;16.00;;;;;;;;;;5073479;28;20543;-63
2022/10/15 02:02:49;;;;;;;21.40;17.33;;;;;;;;;;5073701;28;20490;-62
2022/10/15 02:05:20;;;;;;;19.47;17.10;;;;;;;;;;5073575;28;20530;-62
2022/10/15 02:07:53;;;;;;;20.50;17.15;;;;;;;;;;5073130;28;20806;-62
2022/10/15 02:10:24;;;;;;;20.43;16.40;;;;;;;;;;5073353;28;20649;-62
2022/10/15 02:12:58;;;;;;;16.67;14.68;;;;;;;;;;5073204;28;20471;-62
2022/10/15 02:15:28;;;;;;;18.20;15.37;;;;;;;;;;5073524;28;20839;-62
2022/10/15 02:17:58;;;;;;;18.17;16.03;;;;;;;;;;5073437;28;20534;-62
2022/10/15 02:20:29;;;;;;;17.37;15.57;;;;;;;;;;5073599;28;20520;-62
2022/10/15 02:22:59;;;;;;;19.20;16.10;;;;;;;;;;5073246;28;20893;-62
2022/10/15 02:25:27;;;;;;;21.47;17.40;;;;;;;;;;5073122;28;20453;-62
2022/10/15 02:27:55;;;;;;;18.50;16.33;;;;;;;;;;5073309;28;20443;-62
2022/10/15 02:30:22;;;;;;;18.27;16.03;;;;;;;;;;5073200;28;20474;-62
2022/10/15 02:32:52;;;;;;;17.60;15.43;;;;;;;;;;5073059;28;20478;-62
2022/10/15 02:35:19;;;;;;;20.23;16.77;;;;;;;;;;5073019;28;20454;-62
2022/10/15 02:37:49;;;;;;;16.97;15.00;;;;;;;;;;5072957;28;20453;-62
2022/10/15 02:40:16;;;;;;;19.13;15.50;;;;;;;;;;5072882;28;20935;-62
2022/10/15 02:42:43;;;;;;;19.67;16.08;;;;;;;;;;5072852;28;20200;-62
2022/10/15 02:45:13;;;;;;;16.30;13.57;;;;;;;;;;5073068;28;20205;-62
2022/10/15 02:47:40;;;;;;;19.40;15.50;;;;;;;;;;5072879;28;20217;-62
2022/10/15 02:50:07;;;;;;;17.23;14.37;;;;;;;;;;5072899;28;20814;-62
2022/10/15 02:52:34;;;;;;;19.13;15.00;;;;;;;;;;5072652;28;21007;-62
2022/10/15 02:55:02;;;;;;;17.40;15.33;;;;;;;;;;5073011;28;20453;-62
2022/10/15 02:57:29;;;;;;;16.60;14.60;;;;;;;;;;5072741;28;20451;-62
2022/10/15 02:59:56;;;;;;;16.15;14.38;;;;;;;;;;5072835;28;20458;-62
2022/10/15 03:02:23;;;;;;;17.90;15.77;;;;;;;;;;5072861;28;20189;-62
2022/10/15 03:04:49;;;;;;;17.47;14.20;;;;;;;;;;5072729;28;20802;-62
2022/10/15 03:07:16;;;;;;;15.67;14.17;;;;;;;;;;5072602;28;20509;-62
2022/10/15 03:09:43;;;;;;;17.60;15.70;;;;;;;;;;5072633;28;21024;-62
2022/10/15 03:12:12;;;;;;;20.70;14.70;;;;;;;;;;5072792;28;20448;-62
2022/10/15 03:14:38;;;;;;;18.85;14.68;;;;;;;;;;5072634;28;20636;-62
2022/10/15 03:17:05;;;;;;;16.50;14.70;;;;;;;;;;5072587;28;20189;-62
2022/10/15 03:19:32;;;;;;;15.50;13.83;;;;;;;;;;5072553;28;20454;-62
2022/10/15 03:21:59;;;;;;;17.13;15.33;;;;;;;;;;5076189;28;20447;-62
2022/10/15 03:24:26;;;;;;;17.53;15.73;;;;;;;;;;5076642;28;20451;-62
2022/10/15 03:26:53;;;;;;;17.03;15.17;;;;;;;;;;5076553;28;20443;-62
2022/10/15 03:29:21;;;;;;;16.00;14.30;;;;;;;;;;5076418;28;20443;-62
2022/10/15 03:31:48;;;;;;;15.43;13.83;;;;;;;;;;5076363;28;20470;-62
2022/10/15 03:34:15;;;;;;;18.70;15.50;;;;;;;;;;5076249;28;20889;-62
2022/10/15 03:36:42;;;;;;;14.33;12.83;;;;;;;;;;5076464;28;20446;-62
2022/10/15 03:39:09;;;;;;;14.90;13.40;;;;;;;;;;5076340;28;20447;-62
2022/10/15 03:41:36;;;;;;;18.33;14.60;;;;;;;;;;5076219;28;20497;-62
2022/10/15 03:44:03;;;;;;;16.93;15.27;;;;;;;;;;5076157;28;20447;-62
2022/10/15 03:46:32;;;;;;;17.30;14.70;;;;;;;;;;5076057;28;20447;-62
2022/10/15 03:48:59;;;;;;;15.80;13.90;;;;;;;;;;5075816;28;20978;-62
2022/10/15 03:51:26;;;;;;;14.55;13.00;;;;;;;;;;5076144;28;20546;-62
2022/10/15 03:53:53;;;;;;;15.80;13.40;;;;;;;;;;5075957;28;20561;-62
2022/10/15 03:56:20;;;;;;;13.70;12.23;;;;;;;;;;5075929;28;20447;-62
2022/10/15 03:58:46;;;;;;;15.90;12.67;;;;;;;;;;5075887;28;20542;-62
2022/10/15 04:01:14;;;;;;;14.73;13.30;;;;;;;;;;5075797;28;20455;-63
2022/10/15 04:03:42;;;;;;;15.03;13.47;;;;;;;;;;5075973;28;20451;-62
2022/10/15 04:06:10;;;;;;;14.63;13.03;;;;;;;;;;5075869;28;20487;-62
2022/10/15 04:08:36;;;;;;;15.20;13.50;;;;;;;;;;5075803;28;20871;-62
2022/10/15 04:11:03;;;;;;;15.33;13.83;;;;;;;;;;5075731;28;20501;-62
2022/10/15 04:13:30;;;;;;;13.43;12.03;;;;;;;;;;5075559;28;20570;-62
2022/10/15 04:15:57;;;;;;;16.02;13.60;;;;;;;;;;5075427;28;20538;-62
2022/10/15 04:18:24;;;;;;;14.40;12.90;;;;;;;;;;5075760;28;20193;-62
2022/10/15 04:20:52;;;;;;;14.67;12.83;;;;;;;;;;5075587;28;20451;-62
2022/10/15 04:23:19;;;;;;;14.43;13.03;;;;;;;;;;5075514;28;20538;-62
2022/10/15 04:25:46;;;;;;;14.47;12.93;;;;;;;;;;5075533;28;20454;-62
2022/10/15 04:28:13;;;;;;;14.50;12.60;;;;;;;;;;5075320;28;20543;-62
2022/10/15 04:30:40;;;;;;;15.10;13.70;;;;;;;;;;5075051;28;20446;-62
2022/10/15 04:33:07;;;;;;;20.17;14.33;;;;;;;;;;5075061;28;20873;-62
2022/10/15 04:35:34;;;;;;;14.80;13.30;;;;;;;;;;5075322;28;20541;-62
2022/10/15 04:38:03;;;;;;;14.68;12.88;;;;;;;;;;5075228;28;20851;-62
2022/10/15 04:40:29;;;;;;;15.93;13.20;;;;;;;;;;5075109;28;20219;-62
2022/10/15 04:42:56;;;;;;;14.67;13.17;;;;;;;;;;5075022;28;20447;-62
2022/10/15 04:45:23;;;;;;;15.00;13.40;;;;;;;;;;5074974;28;20451;-62
2022/10/15 04:47:50;;;;;;;15.60;13.97;;;;;;;;;;5074878;28;20468;-62
2022/10/15 04:50:17;;;;;;;13.37;12.10;;;;;;;;;;5075033;28;20455;-62
2022/10/15 04:52:44;;;;;;;14.80;13.50;;;;;;;;;;5074816;28;21018;-62
2022/10/15 04:55:12;;;;;;;14.32;12.85;;;;;;;;;;5074713;28;20489;-62
2022/10/15 04:57:39;;;;;;;16.50;13.20;;;;;;;;;;5074799;28;20186;-62
2022/10/15 05:00:07;;;;;;;15.53;13.20;;;;;;;;;;5074838;28;20448;-62
2022/10/15 05:02:34;;;;;;;15.73;13.07;;;;;;;;;;5074820;28;20482;-62
2022/10/15 05:05:01;;;;;;;14.07;12.70;;;;;;;;;;5074722;28;20504;-62
2022/10/15 05:07:28;;;;;;;16.23;12.23;;;;;;;;;;5074612;28;20802;-62
2022/10/15 05:09:55;;;;;;;14.90;13.47;;;;;;;;;;5074466;28;20454;-62
2022/10/15 05:12:23;;;;;;;14.50;13.00;;;;;;;;;;5074366;28;20447;-62
2022/10/15 05:14:50;;;;;;;13.90;12.50;;;;;;;;;;5074429;28;20485;-62
2022/10/15 05:17:17;;;;;;;14.40;13.00;;;;;;;;;;5074481;28;20871;-62
2022/10/15 05:19:44;;;;;;;13.27;11.97;;;;;;;;;;5074459;28;20534;-62
2022/10/15 05:22:11;;;;;;;15.90;12.30;;;;;;;;;;5074424;28;20451;-62
2022/10/15 05:24:38;;;;;;;14.47;12.43;;;;;;;;;;5074247;28;20534;-62
2022/10/15 05:27:04;;;;;;;14.27;12.77;;;;;;;;;;5074362;28;20537;-62
2022/10/15 05:29:33;;;;;;;14.83;11.80;;;;;;;;;;5074214;28;20195;-62
2022/10/15 05:32:00;;;;;;;12.98;11.77;;;;;;;;;;5074129;28;20548;-62
2022/10/15 05:34:29;;;;;;;14.25;11.77;;;;;;;;;;5073868;28;20209;-62
2022/10/15 05:36:56;;;;;;;13.03;11.73;;;;;;;;;;5073999;28;20221;-62
2022/10/15 05:39:23;;;;;;;12.50;11.30;;;;;;;;;;5073881;28;20457;-62
2022/10/15 05:41:50;;;;;;;12.80;11.45;;;;;;;;;;5074018;28;20451;-62
2022/10/15 05:44:17;;;;;;;11.77;10.77;;;;;;;;;;5073201;28;20280;-62
2022/10/15 05:46:45;;;;;;;12.00;10.90;;;;;;;;;;5073796;28;20887;-62
2022/10/15 05:49:12;;;;;;;12.27;11.10;;;;;;;;;;5073485;28;20558;-62
2022/10/15 05:51:39;;;;;;;13.37;11.97;;;;;;;;;;5073566;28;20459;-62
2022/10/15 05:54:06;;;;;;;11.97;10.87;;;;;;;;;;5073405;28;20557;-62
2022/10/15 05:56:33;;;;;;;12.60;11.30;;;;;;;;;;5073731;28;20784;-62
2022/10/15 05:58:59;;;;;;;13.23;11.82;;;;;;;;;;5073678;28;20542;-62
2022/10/15 06:01:26;;;;;;;13.00;11.70;;;;;;;;;;5073613;28;20189;-62
2022/10/15 06:03:55;;;;;;;14.00;12.60;;;;;;;;;;5073521;28;20455;-62
2022/10/15 06:06:22;;;;;;;13.83;12.40;;;;;;;;;;5073300;28;20543;-62
2022/10/15 06:08:50;;;;;;;13.40;11.97;;;;;;;;;;5073541;28;20525;-62
2022/10/15 06:11:17;;;;;;;12.63;10.80;;;;;;;;;;5073504;28;20447;-62
2022/10/15 06:13:44;;;;;;;13.77;11.68;;;;;;;;;;5073403;28;20819;-62
2022/10/15 06:16:12;;;;;;;12.73;11.40;;;;;;;;;;5073293;28;20196;-62
2022/10/15 06:18:39;;;;;;;13.37;11.90;;;;;;;;;;5073166;28;20288;-62
2022/10/15 06:21:08;;;;;;;14.57;12.93;;;;;;;;;;5073129;28;20448;-62
2022/10/15 06:23:35;;;;;;;18.20;14.03;;;;;;;;;;5073254;28;20479;-62
2022/10/15 06:26:03;;;;;;;14.90;13.50;;;;;;;;;;5073250;28;20479;-62
2022/10/15 06:28:29;;;;;;;13.35;12.15;;;;;;;;;;5073201;28;20447;-62
2022/10/15 06:30:58;;;;;;;14.73;13.33;;;;;;;;;;5073205;28;20296;-62
2022/10/15 06:33:25;;;;;;;14.53;13.23;;;;;;;;;;5072988;28;20451;-62
2022/10/15 06:35:52;;;;;;;13.30;11.90;;;;;;;;;;5072865;28;21009;-62
2022/10/15 06:38:20;;;;;;;13.03;11.77;;;;;;;;;;5073080;28;20451;-62
2022/10/15 06:40:47;;;;;;;13.17;11.97;;;;;;;;;;5073074;28;20542;-62
2022/10/15 06:43:14;;;;;;;13.63;12.23;;;;;;;;;;5073020;28;20534;-62
2022/10/15 06:45:42;;;;;;;17.80;11.50;;;;;;;;;;5072940;28;20814;-62
2022/10/15 06:48:09;;;;;;;15.33;13.87;;;;;;;;;;5072669;28;20477;-62
2022/10/15 06:50:41;;;;;;;14.70;13.35;;;;;;;;;;5073045;28;20448;-62
2022/10/15 06:53:08;;;;;;;14.87;13.33;;;;;;;;;;5072910;28;20196;-62
2022/10/15 06:55:38;;;;;;;15.17;13.70;;;;;;;;;;5077621;28;20482;-62
2022/10/15 06:58:05;;;;;;;15.47;13.97;;;;;;;;;;5079545;28;20447;-61
2022/10/15 07:00:32;;;;;;;13.57;12.33;;;;;;;;;;5079332;28;20454;-62
2022/10/15 07:03:03;;;;;;;13.00;11.80;;;;;;;;;;5079607;28;20888;-62
2022/10/15 07:05:30;;;;;;;12.87;11.50;;;;;;;;;;5079550;28;20815;-62
2022/10/15 07:07:57;;;;;;;11.83;10.73;;;;;;;;;;5079465;28;20538;-62
2022/10/15 07:10:24;;;;;;;12.20;10.97;;;;;;;;;;5079280;28;20551;-62
2022/10/15 07:12:53;;;;;;;13.20;12.00;;;;;;;;;;5079220;28;20477;-62
2022/10/15 07:15:21;;;;;;;12.70;11.50;;;;;;;;;;5079160;28;20486;-62
2022/10/15 07:17:48;;;;;;;11.83;10.73;;;;;;;;;;5079498;28;20473;-62
2022/10/15 07:20:15;;;;;;;12.53;11.33;;;;;;;;;;5079380;28;20452;-62
2022/10/15 07:22:42;;;;;;;12.77;11.50;;;;;;;;;;5079350;28;20875;-62
2022/10/15 07:25:09;;;;;;;12.00;11.00;;;;;;;;;;5079173;28;20451;-61
2022/10/15 07:27:36;;;;;;;11.73;10.63;;;;;;;;;;5079129;28;20458;-62
2022/10/15 07:30:06;;;;;;;13.10;11.73;;;;;;;;;;5079322;28;20447;-62
2022/10/15 07:32:33;;;;;;;12.67;11.53;;;;;;;;;;5079263;28;20896;-62
2022/10/15 07:35:00;;;;;;;13.70;12.40;;;;;;;;;;5079112;28;20475;-62
2022/10/15 07:37:27;;;;;;;13.20;11.33;;;;;;;;;;5079185;28;20482;-62
2022/10/15 07:39:54;;;;;;;13.17;12.07;;;;;;;;;;5079047;28;20538;-62
2022/10/15 07:42:21;;;;;;;13.87;12.50;;;;;;;;;;5078951;28;20489;-62
2022/10/15 07:44:48;;;;;;;12.90;11.50;;;;;;;;;;5079138;28;20451;-62
2022/10/15 07:47:16;;;;;;;13.20;11.93;;;;;;;;;;5078967;28;20453;-62
2022/10/15 07:49:43;;;;;;;13.30;12.10;;;;;;;;;;5079074;28;20203;-62
2022/10/15 07:52:10;;;;;;;10.63;9.63;;;;;;;;;;5079006;28;20881;-62
2022/10/15 07:54:38;;;;;;;13.77;12.47;;;;;;;;;;5078762;28;20570;-62
2022/10/15 07:57:05;;;;;;;12.95;10.65;;;;;;;;;;5079067;28;20483;-62
2022/10/15 07:59:32;;;;;;;11.23;10.15;;;;;;;;;;5079016;28;20200;-62
2022/10/15 08:01:59;;;;;;;9.80;8.90;;;;;;;;;;5078984;28;20189;-62
2022/10/15 08:04:28;;;;;;;10.70;9.73;;;;;;;;;;5079036;28;20454;-62
2022/10/15 08:06:55;;;;;;;10.93;10.03;;;;;;;;;;5075985;28;20501;-62
2022/10/15 08:09:22;;;;;;;11.30;10.18;;;;;;;;;;5075754;28;20513;-62
2022/10/15 08:11:49;;;;;;;15.03;12.17;;;;;;;;;;5075822;28;20189;-62
2022/10/15 08:14:16;;;;;;;10.03;9.00;;;;;;;;;;5075757;28;20547;-62
2022/10/15 08:16:43;;;;;;;10.93;9.87;;;;;;;;;;5075579;28;20573;-62
2022/10/15 08:19:10;;;;;;;11.13;9.73;;;;;;;;;;5075524;28;20538;-62
2022/10/15 08:21:38;;;;;;;10.47;9.37;;;;;;;;;;5075392;28;20902;-63
2022/10/15 08:24:06;;;;;;;13.27;10.47;;;;;;;;;;5075528;28;20534;-62
2022/10/15 08:26:33;;;;;;;10.10;9.10;;;;;;;;;;5075480;28;20459;-62
2022/10/15 08:29:00;;;;;;;11.07;10.13;;;;;;;;;;5075388;28;20447;-62
2022/10/15 08:31:27;;;;;;;11.40;10.20;;;;;;;;;;5075327;28;20485;-62
2022/10/15 08:33:54;;;;;;;12.07;10.73;;;;;;;;;;5075249;28;20225;-62
2022/10/15 08:36:21;;;;;;;12.63;11.50;;;;;;;;;;5074990;28;20515;-62
2022/10/15 08:38:49;;;;;;;11.93;10.73;;;;;;;;;;5075301;28;20452;-62
2022/10/15 08:41:20;;;;;;;12.07;10.88;;;;;;;;;;5075123;28;20541;-62
2022/10/15 08:43:48;;;;;;;11.73;10.53;;;;;;;;;;5075072;28;20189;-62
2022/10/15 08:46:17;;;;;;;10.60;9.63;;;;;;;;;;5075013;28;20867;-62
2022/10/15 08:48:46;;;;;;;11.00;9.93;;;;;;;;;;5074750;28;20467;-62
2022/10/15 08:51:14;;;;;;;11.30;9.13;;;;;;;;;;5074707;28;20998;-62
2022/10/15 08:53:44;;;;;;;11.17;10.00;;;;;;;;;;5074854;28;20742;-62
2022/10/15 08:56:15;;;;;;;10.20;9.30;;;;;;;;;;5074740;28;20490;-62
2022/10/15 08:58:45;;;;;;;11.23;10.23;;;;;;;;;;5074536;28;20978;-62
2022/10/15 09:01:17;;;;;;;9.37;8.57;;;;;;;;;;5074634;28;20538;-62
2022/10/15 09:03:51;;;;;;;8.63;7.50;;;;;;;;;;5074567;28;20452;-62
2022/10/15 09:06:20;;;;;;;8.23;7.63;;;;;;;;;;5074742;28;20850;-62
2022/10/15 09:08:52;;;;;;;8.37;7.30;;;;;;;;;;5074548;28;20543;-62
2022/10/15 09:11:23;;;;;;;8.27;7.37;;;;;;;;;;5074461;28;20534;-62
2022/10/15 09:13:51;;;;;;;7.87;7.27;;;;;;;;;;5074316;28;20451;-63
2022/10/15 09:16:19;;;;;;;8.17;7.37;;;;;;;;;;5074480;28;20566;-62
2022/10/15 09:18:48;;;;;;;8.23;7.53;;;;;;;;;;5073269;28;20447;-63
2022/10/15 09:21:15;;;;;;;9.25;8.43;;;;;;;;;;5074181;28;20957;-62
2022/10/15 09:23:44;;;;;;;7.60;7.00;;;;;;;;;;5074162;28;20648;-62
2022/10/15 09:26:19;;;;;;;7.80;7.00;;;;;;;;;;5074103;28;20526;-62
2022/10/15 09:28:50;;;;;;;8.03;7.13;;;;;;;;;;5074445;28;20479;-62
2022/10/15 09:31:20;;;;;;;7.67;6.97;;;;;;;;;;5074265;28;20451;-62
2022/10/15 09:33:49;;;;;;;7.57;6.97;;;;;;;;;;5073995;28;20448;-63
2022/10/15 09:36:19;;;;;;;7.40;6.70;;;;;;;;;;5073883;28;20573;-62
2022/10/15 09:38:50;;;;;;;7.40;6.80;;;;;;;;;;5074166;28;20453;-61
2022/10/15 09:41:20;;;;;;;8.73;6.70;;;;;;;;;;5074046;28;20470;-61
2022/10/15 09:43:51;;;;;;;6.53;6.03;;;;;;;;;;5074021;28;20452;-61
2022/10/15 09:46:18;;;;;;;6.43;5.93;;;;;;;;;;5073871;28;20440;-61
2022/10/15 09:48:48;;;;;;;5.53;5.13;;;;;;;;;;5073571;28;20471;-61
2022/10/15 09:51:21;;;;;;;6.33;5.60;;;;;;;;;;5073681;28;20454;-61
2022/10/15 09:53:52;;;;;;;5.60;5.20;;;;;;;;;;5073938;28;20454;-61
2022/10/15 09:56:19;;;;;;;5.55;5.07;;;;;;;;;;5073709;28;20518;-61
2022/10/15 09:58:52;;;;;;;5.33;5.03;;;;;;;;;;5073604;28;20193;-61
2022/10/15 10:01:19;;;;;;;6.43;5.67;;;;;;;;;;5073586;28;20459;-61
2022/10/15 10:03:47;;;;;;;5.67;5.17;;;;;;;;;;5073299;28;20542;-61
2022/10/15 10:06:15;;;;;;;5.10;4.80;;;;;;;;;;5073598;28;20454;-61
2022/10/15 10:08:47;;;;;;;18.27;5.83;;;;;;;;;;5073531;28;20452;-61
2022/10/15 10:11:14;;;;;;;4.63;4.33;;;;;;;;;;5073461;28;20816;-61
2022/10/15 10:13:45;;;;;;;5.07;4.70;;;;;;;;;;5073335;28;20447;-61
2022/10/15 10:16:14;;;;;;;5.57;5.07;;;;;;;;;;5073153;28;20479;-61
2022/10/15 10:18:49;;;;;;;4.63;4.33;;;;;;;;;;5073358;28;20502;-61
2022/10/15 10:21:22;;;;;;;4.70;4.40;;;;;;;;;;5073394;28;20439;-61
2022/10/15 10:23:49;;;;;;;4.17;3.97;;;;;;;;;;5073337;28;20539;-61
2022/10/15 10:26:16;;;;;;;5.60;5.07;;;;;;;;;;5073120;28;20553;-61
2022/10/15 10:28:46;;;;;;;4.97;4.57;;;;;;;;;;5072855;28;20501;-62
2022/10/15 10:31:15;;;;;;;6.23;5.63;;;;;;;;;;5073105;28;20534;-61
2022/10/15 10:33:45;;;;;;;4.80;4.50;;;;;;;;;;5072989;28;20482;-61
2022/10/15 10:36:20;;;;;;;5.00;4.60;;;;;;;;;;5073065;28;21070;-61
2022/10/15 10:38:55;;;;;;;4.73;4.43;;;;;;;;;;5073074;28;20819;-61
2022/10/15 10:41:22;;;;;;;4.30;4.00;;;;;;;;;;5072806;28;20545;-61
2022/10/15 10:43:53;;;;;;;4.57;4.17;;;;;;;;;;5072973;28;20453;-61
2022/10/15 10:46:23;;;;;;;4.67;4.37;;;;;;;;;;5072961;28;20916;-61
2022/10/15 10:48:51;;;;;;;4.60;4.30;;;;;;;;;;5072656;28;20486;-61
2022/10/15 10:51:19;;;;;;;8.33;4.33;;;;;;;;;;5073234;28;20448;-61
2022/10/15 10:53:52;;;;;;;5.93;4.93;;;;;;;;;;5072821;28;20851;-61
2022/10/15 10:56:22;;;;;;;4.50;4.20;;;;;;;;;;5072940;28;20577;-61
2022/10/15 10:58:52;;;;;;;5.43;5.10;;;;;;;;;;5072874;28;20547;-61
2022/10/15 11:01:19;;;;;;;5.00;4.60;;;;;;;;;;5073072;28;20452;-61
2022/10/15 11:03:49;;;;;;;8.03;5.07;;;;;;;;;;5072799;28;20897;-61
2022/10/15 11:06:21;;;;;;;3.97;3.67;;;;;;;;;;5072640;28;20501;-61
2022/10/15 11:08:54;;;;;;;4.85;4.55;;;;;;;;;;5072948;28;20447;-61
2022/10/15 11:11:22;;;;;;;5.00;4.50;;;;;;;;;;5072858;28;20195;-61
2022/10/15 11:13:55;;;;;;;3.50;3.27;;;;;;;;;;5072646;28;20447;-61
2022/10/15 11:16:25;;;;;;;4.07;3.83;;;;;;;;;;5072625;28;20479;-61
2022/10/15 11:18:58;;;;;;;3.50;3.30;;;;;;;;;;5072522;28;20538;-61
2022/10/15 11:21:29;;;;;;;4.03;3.73;;;;;;;;;;5072736;28;20859;-62
2022/10/15 11:24:10;;;;;;;3.85;3.65;;;;;;;;;;5072684;28;20451;-61
2022/10/15 11:26:42;;;;;;;4.03;3.73;;;;;;;;;;5072547;28;20189;-61
2022/10/15 11:29:13;;;;;;;4.10;3.73;;;;;;;;;;5072463;28;20451;-63
2022/10/15 11:31:43;;;;;;;4.20;3.40;;;;;;;;;;5072635;28;20542;-62
2022/10/15 11:34:18;;;;;;;3.90;3.60;;;;;;;;;;5072520;28;20546;-62
2022/10/15 11:36:51;;;;;;;4.57;3.70;;;;;;;;;;5072457;28;20483;-63
2022/10/15 11:39:27;;;;;;;3.30;3.10;;;;;;;;;;5072438;28;20450;-62
2022/10/15 11:41:56;;;;;;;3.50;3.30;;;;;;;;;;5073897;28;20469;-62
2022/10/15 11:44:27;;;;;;;3.87;3.57;;;;;;;;;;5076256;28;20454;-62
2022/10/15 11:47:01;;;;;;;4.27;3.97;;;;;;;;;;5076228;28;20889;-62
2022/10/15 11:49:36;;;;;;;4.50;4.10;;;;;;;;;;5075809;28;20833;-62
2022/10/15 11:52:08;;;;;;;6.40;4.23;;;;;;;;;;5075967;28;20200;-62
2022/10/15 11:54:37;;;;;;;3.40;3.20;;;;;;;;;;5075906;28;20530;-62
2022/10/15 11:57:05;;;;;;;3.97;3.77;;;;;;;;;;5075919;28;20566;-62
2022/10/15 11:59:34;;;;;;;4.07;3.20;;;;;;;;;;5075876;28;20455;-62
2022/10/15 12:02:04;;;;;;;3.83;3.47;;;;;;;;;;5075757;28;20888;-62
2022/10/15 12:04:36;;;;;;;4.50;4.20;;;;;;;;;;5075778;28;20528;-62
2022/10/15 12:07:05;;;;;;;4.63;3.43;;;;;;;;;;5075606;28;20447;-63
2022/10/15 12:09:34;;;;;;;3.30;3.10;;;;;;;;;;5075781;28;20833;-63
2022/10/15 12:12:04;;;;;;;3.57;3.37;;;;;;;;;;5075691;28;20449;-63
2022/10/15 12:14:35;;;;;;;4.70;3.63;;;;;;;;;;5075689;28;20450;-62
2022/10/15 12:17:05;;;;;;;3.70;3.50;;;;;;;;;;5075496;28;20839;-62
2022/10/15 12:19:36;;;;;;;3.37;3.17;;;;;;;;;;5075633;28;20538;-63
2022/10/15 12:22:10;;;;;;;4.17;3.87;;;;;;;;;;5075614;28;20525;-63
2022/10/15 12:24:53;;;;;;;3.73;3.43;;;;;;;;;;5075537;28;20455;-63
2022/10/15 12:27:22;;;;;;;3.83;3.00;;;;;;;;;;5075394;28;20455;-62
2022/10/15 12:29:49;;;;;;;3.37;3.07;;;;;;;;;;5075131;28;20505;-63
2022/10/15 12:32:23;;;;;;;2.80;2.70;;;;;;;;;;5075372;28;20451;-63
2022/10/15 12:34:56;;;;;;;3.40;3.20;;;;;;;;;;5075250;28;20455;-63
2022/10/15 12:37:25;;;;;;;2.97;2.77;;;;;;;;;;5075190;28;20509;-63
2022/10/15 12:39:55;;;;;;;3.80;3.40;;;;;;;;;;5074827;28;20946;-62
2022/10/15 12:42:26;;;;;;;3.20;3.00;;;;;;;;;;5075265;28;20448;-63
2022/10/15 12:44:53;;;;;;;3.57;3.37;;;;;;;;;;5075179;28;20474;-63
2022/10/15 12:47:35;;;;;;;2.90;2.80;;;;;;;;;;5074662;28;20491;-63
2022/10/15 12:50:05;;;;;;;2.53;2.43;;;;;;;;;;5074487;28;20532;-63
2022/10/15 12:52:51;;;;;;;2.80;2.70;;;;;;;;;;5074462;28;20444;-63
2022/10/15 12:55:24;;;;;;;3.00;2.80;;;;;;;;;;5075014;28;20894;-63
2022/10/15 12:57:52;;;;;;;3.47;3.20;;;;;;;;;;5074744;28;20489;-62
2022/10/15 13:00:46;;;;;;;2.80;2.60;;;;;;;;;;5074826;28;20451;-62
2022/10/15 13:03:18;;;;;;;2.90;2.70;;;;;;;;;;5027678;28;20225;-63
2022/10/15 13:05:47;;;;;;;3.20;2.90;;;;;;;;;;5074765;28;20518;-63
2022/10/15 13:08:15;;;;;;;3.13;2.97;;;;;;;;;;5074667;28;20192;-63
2022/10/15 13:10:47;;;;;;;2.50;2.30;;;;;;;;;;5074533;28;20459;-63
2022/10/15 13:13:16;;;;;;;2.47;2.20;;;;;;;;;;5074458;28;20448;-63
2022/10/15 13:15:48;;;;;;;2.90;2.70;;;;;;;;;;5074431;28;20562;-63
2022/10/15 13:18:15;;;;;;;2.60;2.00;;;;;;;;;;5074377;28;20458;-63
2022/10/15 13:20:43;;;;;;;2.77;2.67;;;;;;;;;;5074394;28;20542;-62
2022/10/15 13:23:18;;;;;;;3.63;2.70;;;;;;;;;;5074360;28;20932;-63
2022/10/15 13:25:45;;;;;;;3.90;3.57;;;;;;;;;;5074262;28;20482;-63
2022/10/15 13:28:36;;;;;;;3.43;3.00;;;;;;;;;;5073933;28;20453;-63
2022/10/15 13:31:05;;;;;;;3.60;2.03;;;;;;;;;;5054502;28;20825;-63
2022/10/15 13:33:32;;;;;;;1.97;1.77;;;;;;;;;;5074101;28;20868;-62
2022/10/15 13:36:05;;;;;;;1.90;1.80;;;;;;;;;;5073757;28;20447;-62
2022/10/15 13:38:34;;;;;;;2.80;2.20;;;;;;;;;;5073843;28;20221;-63
2022/10/15 13:41:01;;;;;;;2.10;1.90;;;;;;;;;;5074087;28;20479;-63
2022/10/15 13:43:28;;;;;;;2.00;1.90;;;;;;;;;;5073803;28;20454;-63
2022/10/15 13:45:55;;;;;;;3.73;2.17;;;;;;;;;;5073840;28;20494;-63
2022/10/15 13:48:23;;;;;;;2.30;2.20;;;;;;;;;;5073582;28;20471;-62
2022/10/15 13:50:52;;;;;;;3.23;2.27;;;;;;;;;;5073669;28;20513;-63
2022/10/15 13:53:23;;;;;;;2.67;2.47;;;;;;;;;;5073589;28;20443;-62
2022/10/15 13:55:52;;;;;;;2.13;2.03;;;;;;;;;;5073829;28;20250;-62
2022/10/15 13:58:20;;;;;;;2.20;2.10;;;;;;;;;;5073677;28;20506;-62
2022/10/15 14:00:51;;;;;;;2.00;1.90;;;;;;;;;;5073571;28;20785;-62
2022/10/15 14:03:19;;;;;;;2.47;2.27;;;;;;;;;;5073425;28;20451;-63
2022/10/15 14:05:47;;;;;;;3.00;2.50;;;;;;;;;;5072883;28;20508;-63
2022/10/15 14:08:18;;;;;;;3.10;2.80;;;;;;;;;;5073551;28;20613;-63
2022/10/15 14:10:45;;;;;;;2.80;2.60;;;;;;;;;;5073362;28;20521;-63
2022/10/15 14:13:14;;;;;;;3.17;2.63;;;;;;;;;;5073319;28;20514;-62
2022/10/15 14:15:53;;;;;;;2.87;2.60;;;;;;;;;;5073628;28;20726;-63
2022/10/15 14:18:27;;;;;;;4.80;3.50;;;;;;;;;;5073305;28;20494;-63
2022/10/15 14:20:54;;;;;;;5.00;3.20;;;;;;;;;;5073382;28;20601;-63
2022/10/15 14:23:23;;;;;;;3.83;3.10;;;;;;;;;;5073252;28;20452;-63
2022/10/15 14:25:54;;;;;;;3.20;3.00;;;;;;;;;;5073296;28;20450;-63
2022/10/15 14:28:24;;;;;;;3.40;3.10;;;;;;;;;;5073199;28;20448;-63
2022/10/15 14:30:51;;;;;;;3.50;3.10;;;;;;;;;;5073021;28;20483;-63
2022/10/15 14:33:35;;;;;;;4.20;3.90;;;;;;;;;;5073195;28;20535;-63
2022/10/15 14:36:05;;;;;;;3.10;2.93;;;;;;;;;;5073176;28;20539;-63
2022/10/15 14:38:32;;;;;;;3.30;3.00;;;;;;;;;;5073060;28;20443;-62